createdAt,value
2022-07-31T00:02:54.787Z,22.87
2022-07-31T00:07:56.616Z,22.84
2022-07-31T00:12:58.013Z,22.80
2022-07-31T00:18:00.327Z,22.79
2022-07-31T00:23:01.689Z,22.82
2022-07-31T00:28:03.731Z,22.80
2022-07-31T00:33:05.156Z,22.75
2022-07-31T00:38:26.289Z,22.78
2022-07-31T00:43:30.664Z,22.82
2022-07-31T00:48:33.562Z,22.82
2022-07-31T00:53:34.939Z,22.85
2022-07-31T00:58:36.332Z,22.86
2022-07-31T01:03:37.740Z,22.86
2022-07-31T01:08:39.934Z,22.86
2022-07-31T01:13:48.972Z,22.87
2022-07-31T01:18:52.381Z,22.89
2022-07-31T01:24:02.685Z,22.90
2022-07-31T01:29:09.853Z,22.85
2022-07-31T01:34:34.029Z,22.79
2022-07-31T01:39:37.302Z,22.62
2022-07-31T01:44:41.329Z,22.48
2022-07-31T01:49:44.992Z,22.36
2022-07-31T01:54:47.343Z,22.34
2022-07-31T01:59:51.264Z,22.35
2022-07-31T02:04:58.092Z,22.37
2022-07-31T02:09:59.549Z,22.36
2022-07-31T02:15:04.506Z,22.28
2022-07-31T02:20:09.644Z,22.18
2022-07-31T02:25:11.185Z,22.07
2022-07-31T02:30:13.339Z,22.11
2022-07-31T02:35:17.057Z,22.11
2022-07-31T02:40:19.469Z,21.98
2022-07-31T02:45:22.438Z,21.97
2022-07-31T02:50:24.103Z,21.97
2022-07-31T02:55:25.608Z,21.97
2022-07-31T03:00:27.738Z,21.99
2022-07-31T03:05:29.261Z,21.96
2022-07-31T03:10:30.880Z,21.94
2022-07-31T03:15:33.136Z,21.92
2022-07-31T03:20:34.811Z,21.81
2022-07-31T03:25:36.470Z,21.65
2022-07-31T03:30:37.935Z,21.56
2022-07-31T03:35:43.730Z,21.47
2022-07-31T03:40:47.449Z,21.43
2022-07-31T03:45:51.004Z,21.42
2022-07-31T03:50:52.541Z,21.33
2022-07-31T03:55:55.290Z,21.25
2022-07-31T04:00:57.351Z,21.17
2022-07-31T04:06:00.801Z,21.19
2022-07-31T04:11:02.132Z,21.22
2022-07-31T04:16:03.731Z,21.22
2022-07-31T04:21:05.217Z,21.24
2022-07-31T04:26:06.641Z,21.23
2022-07-31T04:31:07.967Z,21.32
2022-07-31T04:36:15.137Z,21.32
2022-07-31T04:41:30.765Z,21.43
2022-07-31T04:46:32.155Z,21.53
2022-07-31T04:51:33.500Z,21.60
2022-07-31T04:56:42.128Z,21.68
2022-07-31T05:01:45.403Z,21.62
2022-07-31T05:06:49.104Z,21.60
2022-07-31T05:11:51.670Z,21.56
2022-07-31T05:16:53.179Z,21.58
2022-07-31T05:21:56.354Z,21.59
2022-07-31T05:26:59.717Z,21.57
2022-07-31T05:32:01.628Z,21.54
2022-07-31T05:37:03.154Z,21.44
2022-07-31T05:42:05.255Z,21.51
2022-07-31T05:47:08.104Z,21.57
2022-07-31T05:52:09.470Z,21.60
2022-07-31T05:57:11.019Z,21.66
2022-07-31T06:02:12.449Z,21.70
2022-07-31T06:07:13.794Z,21.63
2022-07-31T06:12:16.368Z,21.61
2022-07-31T06:17:17.917Z,21.62
2022-07-31T06:22:19.270Z,21.60
2022-07-31T06:27:30.582Z,21.69
2022-07-31T06:32:36.606Z,21.72
2022-07-31T06:37:38.198Z,21.82
2022-07-31T06:42:39.702Z,22.02
2022-07-31T06:47:41.049Z,22.00
2022-07-31T06:52:42.524Z,22.09
2022-07-31T06:57:44.077Z,22.17
2022-07-31T07:02:45.519Z,22.28
2022-07-31T07:07:47.316Z,22.51
2022-07-31T07:12:48.678Z,22.65
2022-07-31T07:17:50.099Z,22.75
2022-07-31T07:22:51.515Z,22.74
2022-07-31T07:27:53.666Z,22.75
2022-07-31T07:32:55.038Z,22.77
2022-07-31T07:37:56.559Z,22.86
2022-07-31T07:43:02.814Z,23.02
2022-07-31T07:48:06.541Z,23.10
2022-07-31T07:53:08.881Z,23.19
2022-07-31T07:58:12.416Z,23.26
2022-07-31T08:03:49.597Z,23.57
2022-07-31T08:08:35.113Z,23.74
2022-07-31T08:13:36.530Z,23.78
2022-07-31T08:18:41.274Z,23.83
2022-07-31T08:23:42.863Z,23.93
2022-07-31T08:28:50.628Z,24.04
2022-07-31T08:33:52.875Z,24.02
2022-07-31T08:38:54.434Z,23.89
2022-07-31T08:44:01.441Z,23.83
2022-07-31T08:49:06.444Z,24.32
2022-07-31T08:54:08.872Z,25.03
2022-07-31T08:59:10.281Z,25.27
2022-07-31T09:04:11.786Z,25.92
2022-07-31T09:09:16.524Z,26.53
2022-07-31T09:14:30.441Z,26.74
2022-07-31T09:19:53.944Z,26.71
2022-07-31T09:25:19.250Z,27.07
2022-07-31T09:30:20.650Z,27.04
2022-07-31T09:35:22.224Z,27.21
2022-07-31T09:40:34.709Z,27.67
2022-07-31T09:45:36.254Z,27.62
2022-07-31T09:51:07.652Z,27.61
2022-07-31T09:56:12.426Z,27.24
2022-07-31T10:01:14.172Z,27.00
2022-07-31T10:06:17.302Z,26.71
2022-07-31T10:11:20.124Z,26.50
2022-07-31T10:16:25.580Z,26.55
2022-07-31T10:21:37.487Z,26.61
2022-07-31T10:26:59.877Z,26.62
2022-07-31T10:32:01.291Z,26.67
2022-07-31T10:37:12.649Z,26.64
2022-07-31T10:42:23.143Z,26.95
2022-07-31T10:47:26.105Z,27.05
2022-07-31T10:52:31.556Z,27.12
2022-07-31T10:57:56.108Z,27.40
2022-07-31T11:02:56.922Z,27.75
2022-07-31T11:08:03.788Z,28.27
2022-07-31T11:13:07.432Z,28.20
2022-07-31T11:18:25.695Z,27.91
2022-07-31T11:23:31.328Z,27.83
2022-07-31T11:28:33.869Z,27.87
2022-07-31T11:33:43.827Z,28.36
2022-07-31T11:38:49.852Z,29.03
2022-07-31T11:43:52.061Z,29.64
2022-07-31T11:48:56.990Z,30.41
2022-07-31T11:53:59.115Z,30.67
2022-07-31T11:59:00.417Z,30.91
2022-07-31T12:04:08.737Z,30.65
2022-07-31T12:10:02.624Z,30.73
2022-07-31T12:14:34.076Z,30.71
2022-07-31T12:19:37.358Z,30.84
2022-07-31T12:24:40.498Z,31.27
2022-07-31T12:29:42.087Z,31.78
2022-07-31T12:34:43.415Z,31.65
2022-07-31T12:39:59.342Z,31.86
2022-07-31T12:45:17.869Z,31.95
2022-07-31T12:50:22.726Z,31.75
2022-07-31T12:55:24.313Z,32.18
2022-07-31T13:00:27.301Z,32.77
2022-07-31T13:05:29.442Z,32.73
2022-07-31T13:10:32.179Z,32.82
2022-07-31T13:15:34.011Z,32.30
2022-07-31T13:20:35.335Z,32.02
2022-07-31T13:25:37.633Z,32.20
2022-07-31T13:30:39.049Z,32.43
2022-07-31T13:35:40.461Z,32.05
2022-07-31T13:41:00.585Z,31.46
2022-07-31T13:46:02.012Z,31.36
2022-07-31T13:51:03.937Z,31.18
2022-07-31T13:56:05.644Z,31.05
2022-07-31T14:01:07.397Z,30.81
2022-07-31T14:06:08.965Z,30.37
2022-07-31T14:11:14.960Z,30.25
2022-07-31T14:16:16.739Z,30.07
2022-07-31T14:21:18.091Z,29.84
2022-07-31T14:26:19.437Z,29.78
2022-07-31T14:31:20.851Z,29.89
2022-07-31T14:36:22.333Z,30.11
2022-07-31T14:41:23.803Z,30.23
2022-07-31T14:46:25.419Z,30.20
2022-07-31T14:51:26.854Z,30.27
2022-07-31T14:56:58.444Z,30.57
2022-07-31T15:01:49.569Z,30.29
2022-07-31T15:07:03.076Z,30.12
2022-07-31T15:12:16.658Z,30.07
2022-07-31T15:17:18.181Z,30.19
2022-07-31T15:22:19.658Z,30.08
2022-07-31T15:27:22.155Z,30.02
2022-07-31T15:32:23.760Z,30.18
2022-07-31T15:37:25.139Z,30.08
2022-07-31T15:42:26.609Z,29.99
2022-07-31T15:47:28.106Z,29.99
2022-07-31T15:52:29.532Z,30.03
2022-07-31T15:57:30.931Z,29.94
2022-07-31T16:02:32.575Z,29.74
2022-07-31T16:08:28.729Z,29.49
2022-07-31T16:12:55.463Z,29.35
2022-07-31T16:17:56.875Z,29.24
2022-07-31T16:23:01.369Z,29.23
2022-07-31T16:28:04.384Z,29.25
2022-07-31T16:33:05.733Z,29.21
2022-07-31T16:38:07.957Z,29.21
2022-07-31T16:43:50.805Z,29.21
2022-07-31T16:48:30.615Z,29.17
2022-07-31T16:53:34.671Z,29.10
2022-07-31T16:58:59.170Z,29.12
2022-07-31T17:04:03.977Z,29.13
2022-07-31T17:09:16.400Z,29.15
2022-07-31T17:14:21.691Z,29.09
2022-07-31T17:19:42.631Z,29.12
2022-07-31T17:24:51.077Z,29.02
2022-07-31T17:29:52.926Z,28.94
2022-07-31T17:34:54.331Z,28.91
2022-07-31T17:39:58.039Z,28.81
2022-07-31T17:45:01.673Z,28.71
2022-07-31T17:50:03.384Z,28.61
2022-07-31T17:55:06.601Z,28.56
2022-07-31T18:00:09.849Z,28.50
2022-07-31T18:05:11.351Z,28.47
2022-07-31T18:10:12.814Z,28.41
2022-07-31T18:15:14.569Z,28.35
2022-07-31T18:20:21.664Z,28.33
2022-07-31T18:25:23.112Z,28.26
2022-07-31T18:30:24.566Z,28.20
2022-07-31T18:35:31.807Z,28.16
2022-07-31T18:40:33.176Z,28.07
2022-07-31T18:45:34.601Z,27.98
2022-07-31T18:51:01.034Z,27.91
2022-07-31T18:55:57.345Z,27.80
2022-07-31T19:00:58.768Z,27.76
2022-07-31T19:06:00.418Z,27.73
2022-07-31T19:11:01.808Z,27.62
2022-07-31T19:16:03.424Z,27.53
2022-07-31T19:21:23.523Z,27.46
2022-07-31T19:26:26.493Z,27.39
2022-07-31T19:31:27.932Z,27.27
2022-07-31T19:36:29.299Z,27.11
2022-07-31T19:41:32.627Z,27.04
2022-07-31T19:46:34.075Z,26.97
2022-07-31T19:51:35.596Z,26.96
2022-07-31T19:56:36.956Z,26.89
2022-07-31T20:01:38.454Z,26.87
2022-07-31T20:06:39.796Z,26.80
2022-07-31T20:11:41.142Z,26.66
2022-07-31T20:16:42.525Z,26.57
2022-07-31T20:21:43.872Z,26.53
2022-07-31T20:26:45.294Z,26.33
2022-07-31T20:31:47.443Z,26.31
2022-07-31T20:36:48.975Z,26.29
2022-07-31T20:41:50.623Z,26.23
2022-07-31T20:46:51.965Z,26.16
2022-07-31T20:51:53.697Z,26.08
2022-07-31T20:56:55.104Z,26.04
2022-07-31T21:01:56.513Z,25.90
2022-07-31T21:06:59.613Z,25.88
2022-07-31T21:12:02.314Z,25.82
2022-07-31T21:17:03.843Z,25.77
2022-07-31T21:22:05.452Z,25.74
2022-07-31T21:27:11.055Z,25.73
2022-07-31T21:32:12.849Z,25.68
2022-07-31T21:37:16.108Z,25.66
2022-07-31T21:42:18.035Z,25.57
2022-07-31T21:47:22.796Z,25.50
2022-07-31T21:52:27.238Z,25.47
2022-07-31T21:57:28.727Z,25.49
2022-07-31T22:02:50.068Z,25.46
2022-07-31T22:07:51.686Z,25.41
2022-07-31T22:12:53.312Z,25.39
2022-07-31T22:17:54.679Z,25.39
2022-07-31T22:22:57.774Z,25.37
2022-07-31T22:27:59.613Z,25.29
2022-07-31T22:33:01.460Z,25.13
2022-07-31T22:38:02.955Z,25.03
2022-07-31T22:44:05.617Z,24.98
2022-07-31T22:48:27.882Z,24.95
2022-07-31T22:53:29.500Z,24.92
2022-07-31T22:58:30.860Z,24.83
2022-07-31T23:03:32.210Z,24.79
2022-07-31T23:08:33.686Z,24.71
2022-07-31T23:13:35.055Z,24.69
2022-07-31T23:18:36.408Z,24.64
2022-07-31T23:23:37.909Z,24.55
2022-07-31T23:28:39.297Z,24.52
2022-07-31T23:33:40.886Z,24.52
2022-07-31T23:38:43.821Z,24.46
2022-07-31T23:43:54.300Z,24.43
2022-07-31T23:48:56.880Z,24.40
2022-07-31T23:53:58.275Z,24.29
2022-07-31T23:58:59.769Z,24.24
